createdAt,value
2022-08-29T00:01:23.084Z,71.80
2022-08-29T00:03:50.541Z,71.90
2022-08-29T00:06:17.794Z,71.80
2022-08-29T00:08:44.989Z,71.80
2022-08-29T00:11:12.485Z,71.80
2022-08-29T00:13:39.967Z,71.80
2022-08-29T00:16:07.377Z,71.70
2022-08-29T00:18:35.156Z,71.90
2022-08-29T00:21:03.974Z,71.90
2022-08-29T00:23:31.191Z,71.90
2022-08-29T00:25:58.437Z,72.00
2022-08-29T00:28:25.706Z,71.90
2022-08-29T00:30:52.908Z,72.00
2022-08-29T00:33:20.289Z,72.00
2022-08-29T00:35:48.016Z,72.10
2022-08-29T00:38:19.174Z,72.00
2022-08-29T00:40:53.127Z,72.10
2022-08-29T00:43:30.438Z,72.00
2022-08-29T00:46:35.190Z,72.10
2022-08-29T00:49:39.236Z,72.00
2022-08-29T00:52:14.713Z,72.00
2022-08-29T00:54:45.519Z,71.90
2022-08-29T00:57:13.729Z,71.80
2022-08-29T00:59:41.571Z,72.00
2022-08-29T01:02:11.202Z,71.80
2022-08-29T01:04:39.674Z,71.80
2022-08-29T01:07:08.745Z,71.80
2022-08-29T01:09:38.230Z,72.00
2022-08-29T01:12:19.799Z,71.90
2022-08-29T01:14:52.531Z,71.90
2022-08-29T01:17:28.159Z,72.00
2022-08-29T01:20:17.668Z,71.90
2022-08-29T01:22:55.039Z,71.70
2022-08-29T01:25:26.213Z,71.90
2022-08-29T01:28:09.945Z,71.90
2022-08-29T01:30:37.073Z,72.00
2022-08-29T01:33:04.430Z,71.80
2022-08-29T01:35:32.082Z,71.80
2022-08-29T01:38:00.844Z,71.70
2022-08-29T01:40:30.129Z,71.80
2022-08-29T01:42:57.699Z,71.90
2022-08-29T01:45:25.012Z,71.80
2022-08-29T01:47:52.200Z,71.90
2022-08-29T01:50:19.946Z,71.80
2022-08-29T01:52:47.071Z,71.90
2022-08-29T01:55:14.311Z,71.90
2022-08-29T01:57:41.868Z,71.80
2022-08-29T02:00:11.988Z,71.80
2022-08-29T02:02:40.969Z,71.70
2022-08-29T02:05:09.561Z,71.80
2022-08-29T02:07:36.687Z,71.90
2022-08-29T02:10:04.851Z,71.80
2022-08-29T02:12:33.026Z,71.70
2022-08-29T02:15:00.656Z,71.70
2022-08-29T02:17:28.140Z,71.60
2022-08-29T02:19:55.248Z,71.60
2022-08-29T02:22:22.419Z,71.70
2022-08-29T02:24:49.720Z,71.80
2022-08-29T02:27:16.821Z,71.70
2022-08-29T02:29:43.968Z,71.60
2022-08-29T02:32:13.591Z,71.60
2022-08-29T02:34:44.781Z,71.50
2022-08-29T02:37:15.347Z,71.60
2022-08-29T02:39:42.455Z,71.60
2022-08-29T02:42:09.603Z,71.60
2022-08-29T02:44:36.750Z,71.60
2022-08-29T02:47:04.106Z,71.60
2022-08-29T02:49:31.305Z,71.60
2022-08-29T02:51:59.742Z,71.60
2022-08-29T02:54:26.831Z,71.60
2022-08-29T02:56:53.992Z,71.60
2022-08-29T02:59:21.210Z,71.60
2022-08-29T03:01:48.431Z,71.60
2022-08-29T03:04:15.577Z,71.60
2022-08-29T03:06:42.756Z,71.50
2022-08-29T03:09:09.951Z,71.60
2022-08-29T03:11:37.103Z,71.50
2022-08-29T03:14:04.898Z,71.60
2022-08-29T03:16:35.104Z,71.40
2022-08-29T03:19:05.268Z,71.50
2022-08-29T03:21:33.472Z,71.30
2022-08-29T03:24:00.667Z,71.50
2022-08-29T03:26:27.856Z,71.40
2022-08-29T03:28:54.992Z,71.50
2022-08-29T03:31:22.372Z,71.40
2022-08-29T03:33:49.779Z,71.40
2022-08-29T03:36:17.167Z,71.60
2022-08-29T03:38:48.412Z,71.60
2022-08-29T03:41:24.806Z,71.50
2022-08-29T03:43:52.629Z,71.70
2022-08-29T03:46:19.859Z,71.50
2022-08-29T03:48:47.162Z,71.60
2022-08-29T03:51:15.309Z,71.60
2022-08-29T03:53:43.190Z,71.60
2022-08-29T03:56:10.880Z,71.60
2022-08-29T03:58:50.438Z,71.60
2022-08-29T04:01:22.610Z,71.50
2022-08-29T04:03:50.472Z,71.60
2022-08-29T04:06:17.988Z,71.60
2022-08-29T04:08:47.424Z,71.60
2022-08-29T04:11:16.207Z,71.70
2022-08-29T04:13:43.397Z,71.70
2022-08-29T04:16:15.909Z,71.60
2022-08-29T04:18:43.510Z,71.70
2022-08-29T04:21:10.674Z,71.70
2022-08-29T04:23:40.750Z,71.80
2022-08-29T04:26:35.547Z,71.80
2022-08-29T04:29:04.036Z,71.80
2022-08-29T04:31:31.330Z,71.80
2022-08-29T04:33:58.550Z,72.10
2022-08-29T04:36:26.243Z,72.00
2022-08-29T04:38:55.059Z,71.90
2022-08-29T04:41:22.673Z,71.90
2022-08-29T04:43:49.871Z,71.90
2022-08-29T04:46:23.950Z,71.80
2022-08-29T04:48:53.211Z,71.80
2022-08-29T04:51:21.167Z,71.80
2022-08-29T04:53:53.414Z,71.80
2022-08-29T04:56:25.020Z,71.80
2022-08-29T04:58:55.176Z,71.80
2022-08-29T05:01:24.448Z,71.80
2022-08-29T05:03:53.267Z,71.90
2022-08-29T05:06:22.917Z,71.80
2022-08-29T05:08:59.037Z,71.90
2022-08-29T05:11:29.362Z,71.90
2022-08-29T05:14:01.671Z,72.00
2022-08-29T05:16:30.681Z,72.00
2022-08-29T05:18:59.667Z,71.90
2022-08-29T05:21:33.955Z,71.90
2022-08-29T05:24:08.589Z,71.90
2022-08-29T05:26:43.753Z,71.90
2022-08-29T05:29:12.779Z,72.00
2022-08-29T05:31:42.112Z,71.90
2022-08-29T05:34:32.288Z,71.90
2022-08-29T05:37:00.842Z,72.00
2022-08-29T05:39:28.001Z,72.70
2022-08-29T05:41:56.301Z,72.00
2022-08-29T05:44:23.968Z,72.00
2022-08-29T05:46:51.489Z,72.10
2022-08-29T05:49:22.106Z,72.00
2022-08-29T05:51:53.453Z,72.00
2022-08-29T05:54:24.801Z,72.10
2022-08-29T05:56:57.601Z,72.10
2022-08-29T05:59:26.079Z,72.10
2022-08-29T06:02:45.008Z,72.00
2022-08-29T06:05:17.829Z,72.10
2022-08-29T06:07:48.494Z,72.30
2022-08-29T06:10:15.709Z,72.20
2022-08-29T06:12:43.012Z,72.30
2022-08-29T06:15:10.629Z,72.20
2022-08-29T06:17:38.592Z,72.30
2022-08-29T06:20:12.539Z,72.30
2022-08-29T06:22:42.352Z,72.20
2022-08-29T06:25:28.326Z,72.20
2022-08-29T06:27:57.700Z,72.20
2022-08-29T06:30:25.035Z,72.20
2022-08-29T06:33:26.327Z,72.20
2022-08-29T06:35:53.565Z,72.30
2022-08-29T06:38:21.086Z,72.30
2022-08-29T06:40:48.478Z,72.30
2022-08-29T06:43:15.654Z,72.30
2022-08-29T06:45:44.016Z,72.30
2022-08-29T06:48:11.350Z,72.30
2022-08-29T06:50:45.412Z,72.40
2022-08-29T06:53:26.819Z,72.40
2022-08-29T06:55:55.670Z,72.50
2022-08-29T06:58:22.843Z,72.50
2022-08-29T07:00:50.116Z,72.50
2022-08-29T07:03:17.775Z,72.50
2022-08-29T07:05:52.540Z,72.60
2022-08-29T07:08:20.227Z,72.70
2022-08-29T07:10:47.698Z,72.70
2022-08-29T07:13:15.037Z,72.70
2022-08-29T07:15:42.519Z,72.90
2022-08-29T07:18:10.249Z,72.90
2022-08-29T07:20:40.227Z,72.80
2022-08-29T07:23:08.833Z,72.80
2022-08-29T07:25:37.448Z,72.80
2022-08-29T07:28:05.948Z,72.90
2022-08-29T07:30:33.654Z,72.90
2022-08-29T07:33:00.990Z,72.90
2022-08-29T07:35:31.196Z,72.80
2022-08-29T07:38:02.066Z,72.90
2022-08-29T07:40:29.870Z,72.80
2022-08-29T07:42:57.233Z,72.90
2022-08-29T07:45:24.484Z,72.90
2022-08-29T07:47:54.030Z,72.90
2022-08-29T07:50:21.408Z,72.90
2022-08-29T07:52:48.707Z,72.90
2022-08-29T07:55:16.021Z,72.90
2022-08-29T07:57:43.189Z,73.00
2022-08-29T08:00:12.383Z,73.70
2022-08-29T08:02:39.752Z,73.00
2022-08-29T08:05:07.802Z,73.00
2022-08-29T08:07:36.219Z,73.00
2022-08-29T08:10:08.787Z,73.00
2022-08-29T08:12:36.036Z,73.00
2022-08-29T08:15:03.788Z,73.10
2022-08-29T08:17:30.986Z,73.00
2022-08-29T08:19:58.141Z,72.90
2022-08-29T08:22:25.443Z,72.90
2022-08-29T08:24:52.816Z,72.90
2022-08-29T08:27:20.135Z,72.90
2022-08-29T08:29:47.276Z,72.90
2022-08-29T08:32:14.952Z,73.00
2022-08-29T08:34:43.097Z,72.90
2022-08-29T08:37:11.575Z,72.90
2022-08-29T08:39:43.171Z,73.00
2022-08-29T08:42:42.511Z,72.90
2022-08-29T08:45:37.756Z,72.90
2022-08-29T08:48:16.114Z,72.80
2022-08-29T08:50:59.724Z,72.90
2022-08-29T08:53:33.883Z,72.80
2022-08-29T08:56:07.493Z,72.80
2022-08-29T08:58:57.752Z,72.80
2022-08-29T09:01:47.500Z,72.70
2022-08-29T09:04:39.373Z,72.70
2022-08-29T09:07:15.206Z,72.70
2022-08-29T09:10:03.548Z,72.60
2022-08-29T09:13:10.090Z,72.70
2022-08-29T09:15:43.973Z,72.70
2022-08-29T09:18:35.432Z,72.60
2022-08-29T09:21:29.988Z,73.30
2022-08-29T09:23:57.818Z,72.60
2022-08-29T09:26:27.232Z,72.50
2022-08-29T09:28:55.314Z,72.40
2022-08-29T09:31:34.968Z,72.30
2022-08-29T09:34:13.072Z,72.30
2022-08-29T09:36:48.540Z,72.20
2022-08-29T09:39:33.983Z,72.10
2022-08-29T09:42:23.303Z,72.10
2022-08-29T09:44:59.191Z,72.20
2022-08-29T09:47:29.520Z,72.20
2022-08-29T09:50:02.446Z,72.10
2022-08-29T09:52:29.985Z,72.10
2022-08-29T09:54:57.671Z,72.00
2022-08-29T09:57:27.909Z,72.00
2022-08-29T10:00:13.325Z,72.00
2022-08-29T10:02:43.917Z,71.90
2022-08-29T10:05:29.073Z,71.80
2022-08-29T10:07:58.166Z,71.90
2022-08-29T10:10:28.802Z,71.80
2022-08-29T10:13:15.520Z,71.90
2022-08-29T10:15:52.279Z,71.90
2022-08-29T10:18:37.325Z,71.80
2022-08-29T10:21:24.506Z,71.70
2022-08-29T10:23:54.673Z,71.70
2022-08-29T10:26:47.668Z,71.60
2022-08-29T10:29:31.425Z,71.30
2022-08-29T10:32:15.806Z,71.50
2022-08-29T10:35:06.485Z,71.60
2022-08-29T10:37:55.475Z,71.50
2022-08-29T10:40:52.687Z,71.40
2022-08-29T10:43:32.060Z,71.30
2022-08-29T10:46:17.316Z,71.40
2022-08-29T10:49:07.985Z,71.40
2022-08-29T10:51:40.468Z,71.40
2022-08-29T10:54:25.787Z,71.30
2022-08-29T10:56:54.915Z,71.20
2022-08-29T10:59:34.727Z,71.20
2022-08-29T11:02:28.909Z,71.30
2022-08-29T11:05:02.958Z,71.20
2022-08-29T11:07:40.045Z,71.10
2022-08-29T11:10:17.749Z,71.10
2022-08-29T11:13:00.259Z,71.00
2022-08-29T11:15:42.746Z,71.00
2022-08-29T11:18:12.748Z,70.70
2022-08-29T11:20:46.907Z,70.90
2022-08-29T11:23:38.818Z,70.80
2022-08-29T11:26:33.972Z,70.90
2022-08-29T11:29:25.590Z,70.80
2022-08-29T11:32:10.855Z,70.50
2022-08-29T11:35:18.166Z,70.40
2022-08-29T11:38:19.233Z,70.50
2022-08-29T11:44:11.916Z,70.60
2022-08-29T11:46:48.883Z,70.60
2022-08-29T11:49:36.300Z,70.70
2022-08-29T11:52:09.237Z,70.60
2022-08-29T11:54:37.103Z,70.50
2022-08-29T11:57:04.471Z,70.40
2022-08-29T11:59:53.816Z,70.30
2022-08-29T12:02:30.854Z,70.30
2022-08-29T12:05:02.441Z,70.30
2022-08-29T12:08:00.407Z,70.40
2022-08-29T12:10:50.532Z,70.30
2022-08-29T12:13:47.400Z,70.30
2022-08-29T12:16:18.301Z,70.10
2022-08-29T12:19:00.359Z,70.20
2022-08-29T12:21:44.425Z,70.00
2022-08-29T12:24:40.666Z,70.00
2022-08-29T12:28:06.018Z,70.00
2022-08-29T12:30:45.403Z,70.00
2022-08-29T12:33:50.574Z,69.90
2022-08-29T12:36:52.394Z,69.90
2022-08-29T12:39:40.298Z,69.70
2022-08-29T12:42:34.017Z,69.80
2022-08-29T12:45:11.863Z,69.70
2022-08-29T12:47:46.121Z,69.30
2022-08-29T12:50:34.547Z,69.50
2022-08-29T12:53:26.734Z,69.50
2022-08-29T12:55:55.617Z,69.60
2022-08-29T12:58:42.926Z,69.40
2022-08-29T13:01:31.463Z,69.30
2022-08-29T13:04:05.683Z,69.30
2022-08-29T13:06:34.637Z,69.50
2022-08-29T13:09:02.988Z,69.40
2022-08-29T13:11:32.552Z,69.30
2022-08-29T13:14:10.050Z,69.30
2022-08-29T13:16:40.790Z,69.30
2022-08-29T13:19:25.015Z,69.30
2022-08-29T13:22:04.280Z,69.10
2022-08-29T13:24:32.035Z,69.10
2022-08-29T13:27:04.970Z,68.90
2022-08-29T13:29:42.307Z,68.80
2022-08-29T13:32:18.833Z,68.90
2022-08-29T13:35:19.398Z,68.80
2022-08-29T13:38:16.983Z,68.70
2022-08-29T13:40:48.494Z,68.60
2022-08-29T13:43:43.319Z,68.70
2022-08-29T13:46:15.085Z,68.60
2022-08-29T13:48:43.768Z,68.70
2022-08-29T13:51:11.637Z,68.60
2022-08-29T13:53:38.852Z,68.70
2022-08-29T13:56:23.840Z,68.60
2022-08-29T13:58:51.475Z,65.10
2022-08-29T14:01:30.548Z,64.70
2022-08-29T14:04:03.566Z,63.00
2022-08-29T14:06:34.114Z,63.80
2022-08-29T14:09:02.103Z,64.00
2022-08-29T14:11:29.451Z,64.60
2022-08-29T14:13:56.786Z,65.10
2022-08-29T14:16:25.035Z,65.40
2022-08-29T14:18:53.832Z,65.10
2022-08-29T14:21:21.689Z,65.10
2022-08-29T14:23:51.571Z,65.20
2022-08-29T14:26:19.156Z,65.30
2022-08-29T14:28:48.171Z,65.50
2022-08-29T14:31:15.903Z,65.60
2022-08-29T14:33:43.127Z,64.30
2022-08-29T14:36:12.379Z,64.90
2022-08-29T14:38:39.619Z,65.00
2022-08-29T14:41:06.919Z,65.00
2022-08-29T14:43:37.819Z,65.20
2022-08-29T14:46:07.519Z,65.20
2022-08-29T14:48:34.875Z,65.40
2022-08-29T14:51:06.361Z,65.40
2022-08-29T14:53:37.894Z,65.40
2022-08-29T14:56:44.751Z,65.10
2022-08-29T14:59:08.774Z,65.00
2022-08-29T15:01:38.638Z,65.20
2022-08-29T15:04:05.962Z,65.20
2022-08-29T15:06:37.262Z,65.20
2022-08-29T15:09:04.885Z,65.10
2022-08-29T15:11:32.317Z,65.00
2022-08-29T15:14:04.489Z,65.10
2022-08-29T15:16:34.007Z,65.00
2022-08-29T15:21:53.618Z,65.10
2022-08-29T15:24:29.826Z,64.90
2022-08-29T15:27:00.068Z,64.90
2022-08-29T15:32:11.045Z,65.00
2022-08-29T15:34:39.527Z,64.90
2022-08-29T15:37:11.884Z,65.50
2022-08-29T15:39:40.102Z,64.80
2022-08-29T15:42:12.026Z,64.60
2022-08-29T15:44:44.491Z,64.60
2022-08-29T15:47:11.938Z,64.40
2022-08-29T15:49:39.716Z,64.50
2022-08-29T15:52:07.487Z,64.60
2022-08-29T15:54:36.129Z,64.50
2022-08-29T15:57:03.962Z,64.40
2022-08-29T15:59:56.423Z,64.30
2022-08-29T16:02:18.802Z,64.20
2022-08-29T16:04:47.871Z,64.10
2022-08-29T16:07:15.908Z,63.80
2022-08-29T16:09:43.971Z,63.70
2022-08-29T16:12:12.678Z,63.70
2022-08-29T16:14:58.966Z,63.70
2022-08-29T16:17:29.850Z,63.40
2022-08-29T16:19:58.209Z,63.60
2022-08-29T16:22:27.911Z,63.40
2022-08-29T16:24:55.370Z,63.40
2022-08-29T16:27:24.269Z,63.40
2022-08-29T16:29:52.336Z,63.30
2022-08-29T16:32:19.998Z,63.40
2022-08-29T16:34:47.187Z,63.90
2022-08-29T16:37:14.744Z,63.30
2022-08-29T16:39:42.036Z,63.30
2022-08-29T16:42:12.245Z,63.10
2022-08-29T16:44:40.924Z,63.20
2022-08-29T16:47:08.255Z,62.50
2022-08-29T16:49:35.749Z,62.60
2022-08-29T16:52:04.219Z,63.50
2022-08-29T16:54:32.355Z,62.80
2022-08-29T16:56:59.578Z,62.60
2022-08-29T16:59:26.854Z,63.60
2022-08-29T17:01:54.451Z,63.80
2022-08-29T17:04:24.777Z,63.20
2022-08-29T17:06:52.570Z,63.70
2022-08-29T17:09:25.155Z,63.70
2022-08-29T17:11:56.373Z,63.80
2022-08-29T17:14:27.075Z,64.00
2022-08-29T17:16:55.722Z,63.80
2022-08-29T17:19:23.637Z,63.20
2022-08-29T17:21:51.322Z,63.50
2022-08-29T17:24:21.897Z,64.00
2022-08-29T17:26:49.688Z,63.70
2022-08-29T17:29:17.388Z,64.00
2022-08-29T17:31:45.100Z,64.10
2022-08-29T17:34:12.954Z,64.10
2022-08-29T17:36:41.953Z,64.60
2022-08-29T17:39:10.415Z,64.40
2022-08-29T17:41:39.430Z,64.40
2022-08-29T17:44:10.123Z,64.00
2022-08-29T17:46:37.508Z,64.40
2022-08-29T17:49:08.349Z,64.30
2022-08-29T17:51:36.742Z,64.10
2022-08-29T17:54:08.413Z,64.20
2022-08-29T17:56:45.367Z,64.40
2022-08-29T17:59:14.761Z,64.30
2022-08-29T18:01:45.643Z,64.00
2022-08-29T18:04:14.097Z,64.10
2022-08-29T18:06:42.542Z,64.00
2022-08-29T18:09:12.869Z,64.00
2022-08-29T18:11:42.317Z,64.00
2022-08-29T18:14:10.311Z,64.00
2022-08-29T18:16:40.389Z,64.00
2022-08-29T18:19:07.957Z,64.00
2022-08-29T18:21:35.910Z,63.80
2022-08-29T18:24:25.069Z,63.80
2022-08-29T18:26:52.286Z,63.90
2022-08-29T18:29:20.885Z,63.70
2022-08-29T18:31:49.119Z,63.80
2022-08-29T18:34:16.631Z,63.80
2022-08-29T18:36:45.667Z,64.40
2022-08-29T18:39:19.732Z,63.90
2022-08-29T18:41:47.654Z,63.70
2022-08-29T18:44:14.862Z,63.60
2022-08-29T18:47:05.556Z,63.50
2022-08-29T18:49:54.553Z,63.50
2022-08-29T18:52:21.900Z,63.30
2022-08-29T18:54:49.283Z,63.40
2022-08-29T18:57:16.588Z,63.10
2022-08-29T18:59:43.922Z,63.30
2022-08-29T19:02:13.084Z,63.30
2022-08-29T19:04:41.571Z,63.20
2022-08-29T19:07:09.439Z,63.50
2022-08-29T19:09:45.707Z,63.20
2022-08-29T19:12:13.077Z,63.10
2022-08-29T19:14:46.147Z,63.10
2022-08-29T19:17:13.728Z,63.00
2022-08-29T19:19:59.792Z,63.10
2022-08-29T19:22:31.511Z,63.00
2022-08-29T19:24:58.934Z,63.00
2022-08-29T19:27:42.606Z,63.10
2022-08-29T19:30:13.587Z,62.90
2022-08-29T19:32:49.332Z,63.00
2022-08-29T19:35:16.608Z,62.90
2022-08-29T19:37:44.845Z,62.70
2022-08-29T19:40:16.471Z,62.90
2022-08-29T19:42:47.606Z,62.80
2022-08-29T19:45:17.253Z,62.80
2022-08-29T19:47:44.871Z,62.80
2022-08-29T19:50:14.422Z,62.90
2022-08-29T19:56:35.622Z,62.70
2022-08-29T19:59:04.649Z,62.70
2022-08-29T20:01:34.134Z,62.70
2022-08-29T20:04:03.829Z,62.60
2022-08-29T20:06:31.028Z,62.70
2022-08-29T20:08:58.681Z,62.60
2022-08-29T20:11:28.001Z,62.60
2022-08-29T20:13:58.787Z,62.40
2022-08-29T20:16:37.373Z,62.60
2022-08-29T20:19:06.137Z,62.20
2022-08-29T20:21:34.949Z,62.50
2022-08-29T20:24:02.568Z,62.50
2022-08-29T20:26:32.884Z,62.30
2022-08-29T20:29:02.484Z,62.40
2022-08-29T20:31:30.051Z,62.40
2022-08-29T20:33:59.829Z,62.20
2022-08-29T20:36:46.721Z,62.50
2022-08-29T20:39:17.204Z,62.30
2022-08-29T20:42:02.347Z,62.30
2022-08-29T20:44:38.059Z,62.30
2022-08-29T20:47:07.257Z,60.40
2022-08-29T20:49:37.488Z,61.40
2022-08-29T20:52:05.867Z,62.60
2022-08-29T20:54:34.397Z,62.70
2022-08-29T20:57:01.619Z,62.50
2022-08-29T20:59:32.589Z,62.50
2022-08-29T21:02:03.221Z,62.40
2022-08-29T21:04:49.033Z,62.50
2022-08-29T21:07:20.632Z,62.30
2022-08-29T21:09:50.637Z,62.20
2022-08-29T21:12:18.926Z,62.40
2022-08-29T21:14:46.877Z,62.50
2022-08-29T21:17:15.051Z,62.30
2022-08-29T21:19:43.148Z,62.90
2022-08-29T21:22:12.902Z,62.20
2022-08-29T21:24:40.559Z,62.40
2022-08-29T21:27:07.770Z,62.30
2022-08-29T21:29:34.953Z,62.30
2022-08-29T21:32:02.157Z,62.30
2022-08-29T21:34:29.409Z,62.10
2022-08-29T21:36:56.528Z,62.20
2022-08-29T21:39:29.025Z,62.20
2022-08-29T21:41:57.238Z,62.20
2022-08-29T21:44:24.452Z,62.20
2022-08-29T21:46:52.408Z,62.10
2022-08-29T21:49:21.907Z,62.00
2022-08-29T21:51:49.866Z,62.00
2022-08-29T21:54:18.286Z,62.10
2022-08-29T21:56:46.364Z,61.80
2022-08-29T21:59:17.789Z,61.50
2022-08-29T22:01:46.670Z,61.70
2022-08-29T22:04:19.289Z,61.50
2022-08-29T22:06:59.734Z,61.50
2022-08-29T22:09:27.760Z,61.60
2022-08-29T22:11:55.154Z,61.70
2022-08-29T22:14:42.223Z,61.30
2022-08-29T22:17:09.387Z,61.50
2022-08-29T22:19:36.706Z,61.40
2022-08-29T22:22:04.604Z,61.00
2022-08-29T22:24:32.297Z,61.10
2022-08-29T22:27:00.102Z,61.10
2022-08-29T22:29:27.470Z,61.00
2022-08-29T22:31:56.936Z,61.30
2022-08-29T22:34:24.164Z,62.00
2022-08-29T22:36:54.229Z,61.20
2022-08-29T22:39:21.514Z,61.10
2022-08-29T22:41:51.495Z,61.30
2022-08-29T22:47:06.221Z,61.40
2022-08-29T22:49:34.509Z,61.50
2022-08-29T22:52:02.354Z,61.40
2022-08-29T22:54:35.607Z,61.10
2022-08-29T22:57:11.318Z,61.10
2022-08-29T22:59:39.439Z,61.30
2022-08-29T23:02:06.929Z,61.20
2022-08-29T23:04:37.840Z,61.40
2022-08-29T23:07:07.413Z,61.00
2022-08-29T23:10:28.386Z,60.80
2022-08-29T23:12:55.508Z,60.80
2022-08-29T23:15:22.807Z,61.20
2022-08-29T23:17:50.211Z,61.00
2022-08-29T23:20:19.210Z,60.70
2022-08-29T23:22:46.839Z,60.80
2022-08-29T23:27:56.840Z,60.80
2022-08-29T23:30:26.893Z,60.90
2022-08-29T23:32:55.230Z,60.70
2022-08-29T23:35:23.704Z,60.80
2022-08-29T23:37:54.133Z,61.10
2022-08-29T23:40:21.859Z,60.90
2022-08-29T23:42:49.053Z,61.10
2022-08-29T23:45:16.277Z,61.00
2022-08-29T23:51:46.321Z,61.10
2022-08-29T23:54:16.857Z,61.10
2022-08-29T23:56:53.564Z,61.00
2022-08-29T23:59:39.518Z,60.90
